sensor_id;sensor_type;location;lat;lon;timestamp;P1;durP1;ratioP1;P2;durP2;ratioP2
74401;SDS011;62837;51.082;13.744;2022-10-16T00:01:59;9.40;;;6.30;;
74401;SDS011;62837;51.082;13.744;2022-10-16T00:04:30;9.00;;;6.70;;
74401;SDS011;62837;51.082;13.744;2022-10-16T00:07:00;8.80;;;6.40;;
74401;SDS011;62837;51.082;13.744;2022-10-16T00:09:31;10.00;;;7.00;;
74401;SDS011;62837;51.082;13.744;2022-10-16T00:12:02;9.30;;;7.30;;
74401;SDS011;62837;51.082;13.744;2022-10-16T00:17:03;8.60;;;6.90;;
74401;SDS011;62837;51.082;13.744;2022-10-16T00:19:34;9.60;;;6.60;;
74401;SDS011;62837;51.082;13.744;2022-10-16T00:22:04;9.70;;;6.80;;
74401;SDS011;62837;51.082;13.744;2022-10-16T00:24:35;8.50;;;6.50;;
74401;SDS011;62837;51.082;13.744;2022-10-16T00:27:07;9.80;;;7.30;;
74401;SDS011;62837;51.082;13.744;2022-10-16T00:29:37;8.10;;;6.30;;
74401;SDS011;62837;51.082;13.744;2022-10-16T00:32:08;8.70;;;6.70;;
74401;SDS011;62837;51.082;13.744;2022-10-16T00:34:38;9.50;;;6.90;;
74401;SDS011;62837;51.082;13.744;2022-10-16T00:37:09;9.10;;;6.50;;
74401;SDS011;62837;51.082;13.744;2022-10-16T00:39:40;11.30;;;6.60;;
74401;SDS011;62837;51.082;13.744;2022-10-16T00:42:11;9.00;;;4.90;;
74401;SDS011;62837;51.082;13.744;2022-10-16T00:44:47;8.20;;;6.20;;
74401;SDS011;62837;51.082;13.744;2022-10-16T00:47:22;8.70;;;6.30;;
74401;SDS011;62837;51.082;13.744;2022-10-16T00:49:58;9.50;;;6.30;;
74401;SDS011;62837;51.082;13.744;2022-10-16T00:52:34;9.30;;;6.00;;
74401;SDS011;62837;51.082;13.744;2022-10-16T00:55:06;8.90;;;6.30;;
74401;SDS011;62837;51.082;13.744;2022-10-16T00:57:39;9.40;;;5.40;;
74401;SDS011;62837;51.082;13.744;2022-10-16T01:00:12;9.00;;;5.90;;
74401;SDS011;62837;51.082;13.744;2022-10-16T01:02:52;7.90;;;5.90;;
74401;SDS011;62837;51.082;13.744;2022-10-16T01:05:24;7.90;;;6.20;;
74401;SDS011;62837;51.082;13.744;2022-10-16T01:08:01;8.30;;;6.30;;
74401;SDS011;62837;51.082;13.744;2022-10-16T01:10:41;6.80;;;5.60;;
74401;SDS011;62837;51.082;13.744;2022-10-16T01:13:18;8.30;;;5.90;;
74401;SDS011;62837;51.082;13.744;2022-10-16T01:15:51;7.20;;;5.30;;
74401;SDS011;62837;51.082;13.744;2022-10-16T01:18:28;7.40;;;5.50;;
74401;SDS011;62837;51.082;13.744;2022-10-16T01:21:03;9.20;;;6.40;;
74401;SDS011;62837;51.082;13.744;2022-10-16T01:23:38;7.00;;;5.50;;
74401;SDS011;62837;51.082;13.744;2022-10-16T01:26:23;7.50;;;5.30;;
74401;SDS011;62837;51.082;13.744;2022-10-16T01:29:07;9.10;;;5.60;;
74401;SDS011;62837;51.082;13.744;2022-10-16T01:31:44;7.00;;;5.50;;
74401;SDS011;62837;51.082;13.744;2022-10-16T01:34:25;6.30;;;4.70;;
74401;SDS011;62837;51.082;13.744;2022-10-16T01:37:02;7.80;;;5.70;;
74401;SDS011;62837;51.082;13.744;2022-10-16T01:39:38;6.70;;;5.00;;
74401;SDS011;62837;51.082;13.744;2022-10-16T01:42:13;7.50;;;5.50;;
74401;SDS011;62837;51.082;13.744;2022-10-16T01:44:49;7.80;;;5.00;;
74401;SDS011;62837;51.082;13.744;2022-10-16T01:47:23;5.40;;;4.30;;
74401;SDS011;62837;51.082;13.744;2022-10-16T01:49:56;7.10;;;5.50;;
74401;SDS011;62837;51.082;13.744;2022-10-16T01:52:32;6.90;;;4.90;;
74401;SDS011;62837;51.082;13.744;2022-10-16T01:55:07;7.20;;;5.60;;
74401;SDS011;62837;51.082;13.744;2022-10-16T01:57:42;8.70;;;5.60;;
74401;SDS011;62837;51.082;13.744;2022-10-16T02:00:17;6.80;;;5.20;;
74401;SDS011;62837;51.082;13.744;2022-10-16T02:02:51;7.00;;;5.90;;
74401;SDS011;62837;51.082;13.744;2022-10-16T02:05:25;8.80;;;5.70;;
74401;SDS011;62837;51.082;13.744;2022-10-16T02:07:59;8.70;;;5.20;;
74401;SDS011;62837;51.082;13.744;2022-10-16T02:10:32;7.10;;;5.80;;
74401;SDS011;62837;51.082;13.744;2022-10-16T02:13:06;9.00;;;7.00;;
74401;SDS011;62837;51.082;13.744;2022-10-16T02:15:40;8.80;;;6.80;;
74401;SDS011;62837;51.082;13.744;2022-10-16T02:18:10;6.50;;;5.70;;
74401;SDS011;62837;51.082;13.744;2022-10-16T02:23:19;10.30;;;5.90;;
74401;SDS011;62837;51.082;13.744;2022-10-16T02:25:56;8.90;;;6.80;;
74401;SDS011;62837;51.082;13.744;2022-10-16T02:28:33;9.10;;;7.30;;
74401;SDS011;62837;51.082;13.744;2022-10-16T02:31:10;7.40;;;6.30;;
74401;SDS011;62837;51.082;13.744;2022-10-16T02:33:45;7.90;;;6.40;;
74401;SDS011;62837;51.082;13.744;2022-10-16T02:36:17;8.80;;;7.20;;
74401;SDS011;62837;51.082;13.744;2022-10-16T02:38:47;8.10;;;6.20;;
74401;SDS011;62837;51.082;13.744;2022-10-16T02:41:19;10.10;;;6.90;;
74401;SDS011;62837;51.082;13.744;2022-10-16T02:43:51;7.70;;;5.80;;
74401;SDS011;62837;51.082;13.744;2022-10-16T02:46:22;9.00;;;6.50;;
74401;SDS011;62837;51.082;13.744;2022-10-16T02:48:53;10.30;;;6.40;;
74401;SDS011;62837;51.082;13.744;2022-10-16T02:51:24;9.50;;;7.10;;
74401;SDS011;62837;51.082;13.744;2022-10-16T02:53:54;10.30;;;7.80;;
74401;SDS011;62837;51.082;13.744;2022-10-16T02:56:25;11.00;;;7.60;;
74401;SDS011;62837;51.082;13.744;2022-10-16T02:58:57;9.30;;;6.40;;
74401;SDS011;62837;51.082;13.744;2022-10-16T03:01:28;13.00;;;8.50;;
74401;SDS011;62837;51.082;13.744;2022-10-16T03:03:59;14.00;;;7.60;;
74401;SDS011;62837;51.082;13.744;2022-10-16T03:06:29;11.90;;;8.20;;
74401;SDS011;62837;51.082;13.744;2022-10-16T03:09:00;11.60;;;8.40;;
74401;SDS011;62837;51.082;13.744;2022-10-16T03:11:31;10.40;;;7.60;;
74401;SDS011;62837;51.082;13.744;2022-10-16T03:14:01;9.00;;;7.00;;
74401;SDS011;62837;51.082;13.744;2022-10-16T03:16:32;12.10;;;6.50;;
74401;SDS011;62837;51.082;13.744;2022-10-16T03:19:03;8.40;;;7.20;;
74401;SDS011;62837;51.082;13.744;2022-10-16T03:21:34;8.10;;;6.60;;
74401;SDS011;62837;51.082;13.744;2022-10-16T03:24:05;9.20;;;6.60;;
74401;SDS011;62837;51.082;13.744;2022-10-16T03:26:36;8.80;;;6.90;;
74401;SDS011;62837;51.082;13.744;2022-10-16T03:29:07;8.60;;;6.80;;
74401;SDS011;62837;51.082;13.744;2022-10-16T03:31:38;10.90;;;7.80;;
74401;SDS011;62837;51.082;13.744;2022-10-16T03:34:08;8.40;;;6.40;;
74401;SDS011;62837;51.082;13.744;2022-10-16T03:36:39;8.30;;;6.40;;
74401;SDS011;62837;51.082;13.744;2022-10-16T03:39:10;8.00;;;6.50;;
74401;SDS011;62837;51.082;13.744;2022-10-16T03:41:40;8.70;;;6.60;;
74401;SDS011;62837;51.082;13.744;2022-10-16T03:44:11;7.80;;;6.30;;
74401;SDS011;62837;51.082;13.744;2022-10-16T03:46:42;9.20;;;7.00;;
74401;SDS011;62837;51.082;13.744;2022-10-16T03:49:13;11.50;;;7.70;;
74401;SDS011;62837;51.082;13.744;2022-10-16T03:51:43;7.10;;;5.50;;
74401;SDS011;62837;51.082;13.744;2022-10-16T03:54:14;9.80;;;7.10;;
74401;SDS011;62837;51.082;13.744;2022-10-16T03:56:45;10.70;;;7.50;;
74401;SDS011;62837;51.082;13.744;2022-10-16T03:59:16;10.50;;;6.60;;
74401;SDS011;62837;51.082;13.744;2022-10-16T04:01:46;14.30;;;6.70;;
74401;SDS011;62837;51.082;13.744;2022-10-16T04:04:17;10.20;;;6.50;;
74401;SDS011;62837;51.082;13.744;2022-10-16T04:06:48;10.40;;;6.80;;
74401;SDS011;62837;51.082;13.744;2022-10-16T04:09:19;11.50;;;7.40;;
74401;SDS011;62837;51.082;13.744;2022-10-16T04:11:49;9.30;;;6.70;;
74401;SDS011;62837;51.082;13.744;2022-10-16T04:14:20;11.80;;;7.80;;
74401;SDS011;62837;51.082;13.744;2022-10-16T04:16:51;10.60;;;8.10;;
74401;SDS011;62837;51.082;13.744;2022-10-16T04:19:22;10.60;;;7.20;;
74401;SDS011;62837;51.082;13.744;2022-10-16T04:21:52;8.20;;;7.10;;
74401;SDS011;62837;51.082;13.744;2022-10-16T04:24:23;9.70;;;6.50;;
74401;SDS011;62837;51.082;13.744;2022-10-16T04:26:54;6.80;;;4.90;;
74401;SDS011;62837;51.082;13.744;2022-10-16T04:29:24;9.60;;;6.80;;
74401;SDS011;62837;51.082;13.744;2022-10-16T04:31:55;7.60;;;5.90;;
74401;SDS011;62837;51.082;13.744;2022-10-16T04:34:26;7.90;;;6.60;;
74401;SDS011;62837;51.082;13.744;2022-10-16T04:36:57;8.80;;;6.40;;
74401;SDS011;62837;51.082;13.744;2022-10-16T04:39:27;7.10;;;6.10;;
74401;SDS011;62837;51.082;13.744;2022-10-16T04:41:58;8.60;;;6.80;;
74401;SDS011;62837;51.082;13.744;2022-10-16T04:44:29;10.90;;;7.30;;
74401;SDS011;62837;51.082;13.744;2022-10-16T04:46:59;8.90;;;6.70;;
74401;SDS011;62837;51.082;13.744;2022-10-16T04:49:30;9.80;;;7.40;;
74401;SDS011;62837;51.082;13.744;2022-10-16T04:52:01;10.30;;;7.30;;
74401;SDS011;62837;51.082;13.744;2022-10-16T04:54:31;9.50;;;6.40;;
74401;SDS011;62837;51.082;13.744;2022-10-16T04:57:02;6.90;;;6.10;;
74401;SDS011;62837;51.082;13.744;2022-10-16T04:59:33;7.00;;;5.00;;
74401;SDS011;62837;51.082;13.744;2022-10-16T05:02:04;8.70;;;5.70;;
74401;SDS011;62837;51.082;13.744;2022-10-16T05:04:35;6.70;;;4.50;;
74401;SDS011;62837;51.082;13.744;2022-10-16T05:07:06;9.40;;;6.10;;
74401;SDS011;62837;51.082;13.744;2022-10-16T05:09:36;8.70;;;5.80;;
74401;SDS011;62837;51.082;13.744;2022-10-16T05:12:07;8.30;;;6.20;;
74401;SDS011;62837;51.082;13.744;2022-10-16T05:14:38;8.40;;;6.50;;
74401;SDS011;62837;51.082;13.744;2022-10-16T05:17:08;9.40;;;7.60;;
74401;SDS011;62837;51.082;13.744;2022-10-16T05:19:39;9.10;;;5.70;;
74401;SDS011;62837;51.082;13.744;2022-10-16T05:22:10;6.90;;;5.80;;
74401;SDS011;62837;51.082;13.744;2022-10-16T05:24:40;8.70;;;7.10;;
74401;SDS011;62837;51.082;13.744;2022-10-16T05:27:11;10.00;;;6.10;;
74401;SDS011;62837;51.082;13.744;2022-10-16T05:29:46;7.50;;;6.80;;
74401;SDS011;62837;51.082;13.744;2022-10-16T05:32:18;9.70;;;7.00;;
74401;SDS011;62837;51.082;13.744;2022-10-16T05:34:50;7.60;;;5.50;;
74401;SDS011;62837;51.082;13.744;2022-10-16T05:37:21;9.30;;;6.70;;
74401;SDS011;62837;51.082;13.744;2022-10-16T05:39:52;8.60;;;7.00;;
74401;SDS011;62837;51.082;13.744;2022-10-16T05:42:23;8.30;;;7.40;;
74401;SDS011;62837;51.082;13.744;2022-10-16T05:44:53;7.90;;;6.10;;
74401;SDS011;62837;51.082;13.744;2022-10-16T05:47:24;8.30;;;6.50;;
74401;SDS011;62837;51.082;13.744;2022-10-16T05:49:55;11.10;;;6.70;;
74401;SDS011;62837;51.082;13.744;2022-10-16T05:52:27;11.30;;;6.90;;
74401;SDS011;62837;51.082;13.744;2022-10-16T05:54:58;11.50;;;7.90;;
74401;SDS011;62837;51.082;13.744;2022-10-16T05:57:29;10.30;;;7.80;;
74401;SDS011;62837;51.082;13.744;2022-10-16T05:59:59;10.50;;;7.10;;
74401;SDS011;62837;51.082;13.744;2022-10-16T06:02:51;11.50;;;7.80;;
74401;SDS011;62837;51.082;13.744;2022-10-16T06:05:22;8.00;;;6.60;;
74401;SDS011;62837;51.082;13.744;2022-10-16T06:07:53;10.10;;;7.60;;
74401;SDS011;62837;51.082;13.744;2022-10-16T06:10:24;10.10;;;8.10;;
74401;SDS011;62837;51.082;13.744;2022-10-16T06:12:55;9.50;;;7.30;;
74401;SDS011;62837;51.082;13.744;2022-10-16T06:15:26;10.60;;;6.80;;
74401;SDS011;62837;51.082;13.744;2022-10-16T06:17:56;8.60;;;7.70;;
74401;SDS011;62837;51.082;13.744;2022-10-16T06:20:27;8.20;;;6.10;;
74401;SDS011;62837;51.082;13.744;2022-10-16T06:22:58;8.60;;;6.70;;
74401;SDS011;62837;51.082;13.744;2022-10-16T06:25:28;6.50;;;5.10;;
74401;SDS011;62837;51.082;13.744;2022-10-16T06:27:59;9.70;;;7.40;;
74401;SDS011;62837;51.082;13.744;2022-10-16T06:30:30;9.00;;;6.90;;
74401;SDS011;62837;51.082;13.744;2022-10-16T06:33:01;8.50;;;6.60;;
74401;SDS011;62837;51.082;13.744;2022-10-16T06:35:31;8.80;;;6.30;;
74401;SDS011;62837;51.082;13.744;2022-10-16T06:38:02;8.80;;;6.90;;
74401;SDS011;62837;51.082;13.744;2022-10-16T06:40:33;10.70;;;6.70;;
74401;SDS011;62837;51.082;13.744;2022-10-16T06:43:03;6.80;;;5.40;;
74401;SDS011;62837;51.082;13.744;2022-10-16T06:45:34;9.50;;;6.80;;
74401;SDS011;62837;51.082;13.744;2022-10-16T06:48:05;8.40;;;7.00;;
74401;SDS011;62837;51.082;13.744;2022-10-16T06:50:35;9.00;;;7.20;;
74401;SDS011;62837;51.082;13.744;2022-10-16T06:53:06;8.20;;;6.80;;
74401;SDS011;62837;51.082;13.744;2022-10-16T06:55:37;9.70;;;6.90;;
74401;SDS011;62837;51.082;13.744;2022-10-16T06:58:07;6.70;;;5.70;;
74401;SDS011;62837;51.082;13.744;2022-10-16T07:00:38;9.10;;;7.10;;
74401;SDS011;62837;51.082;13.744;2022-10-16T07:03:09;11.30;;;7.80;;
74401;SDS011;62837;51.082;13.744;2022-10-16T07:05:40;10.20;;;7.70;;
74401;SDS011;62837;51.082;13.744;2022-10-16T07:08:11;7.00;;;5.90;;
74401;SDS011;62837;51.082;13.744;2022-10-16T07:10:42;7.60;;;6.80;;
74401;SDS011;62837;51.082;13.744;2022-10-16T07:13:12;8.30;;;7.10;;
74401;SDS011;62837;51.082;13.744;2022-10-16T07:15:43;10.10;;;7.20;;
74401;SDS011;62837;51.082;13.744;2022-10-16T07:18:14;11.30;;;7.80;;
74401;SDS011;62837;51.082;13.744;2022-10-16T07:20:45;9.90;;;8.10;;
74401;SDS011;62837;51.082;13.744;2022-10-16T07:23:15;9.60;;;7.80;;
74401;SDS011;62837;51.082;13.744;2022-10-16T07:25:46;11.20;;;8.30;;
74401;SDS011;62837;51.082;13.744;2022-10-16T07:28:24;11.90;;;7.90;;
74401;SDS011;62837;51.082;13.744;2022-10-16T07:30:55;9.80;;;7.80;;
74401;SDS011;62837;51.082;13.744;2022-10-16T07:33:29;8.60;;;6.80;;
74401;SDS011;62837;51.082;13.744;2022-10-16T07:35:59;11.50;;;8.70;;
74401;SDS011;62837;51.082;13.744;2022-10-16T07:38:30;10.30;;;8.90;;
74401;SDS011;62837;51.082;13.744;2022-10-16T07:41:02;10.10;;;8.10;;
74401;SDS011;62837;51.082;13.744;2022-10-16T07:43:34;9.60;;;7.80;;
74401;SDS011;62837;51.082;13.744;2022-10-16T07:46:05;9.50;;;8.20;;
74401;SDS011;62837;51.082;13.744;2022-10-16T07:48:36;8.50;;;7.00;;
74401;SDS011;62837;51.082;13.744;2022-10-16T07:51:06;10.50;;;7.70;;
74401;SDS011;62837;51.082;13.744;2022-10-16T07:53:37;10.80;;;7.10;;
74401;SDS011;62837;51.082;13.744;2022-10-16T07:56:08;8.90;;;7.00;;
74401;SDS011;62837;51.082;13.744;2022-10-16T07:58:40;10.30;;;7.80;;
74401;SDS011;62837;51.082;13.744;2022-10-16T08:01:12;9.90;;;7.80;;
74401;SDS011;62837;51.082;13.744;2022-10-16T08:03:45;8.00;;;6.60;;
74401;SDS011;62837;51.082;13.744;2022-10-16T08:06:17;8.20;;;6.80;;
74401;SDS011;62837;51.082;13.744;2022-10-16T08:11:24;9.70;;;6.60;;
74401;SDS011;62837;51.082;13.744;2022-10-16T08:13:55;7.80;;;5.90;;
74401;SDS011;62837;51.082;13.744;2022-10-16T08:16:26;7.20;;;6.40;;
74401;SDS011;62837;51.082;13.744;2022-10-16T08:18:56;9.40;;;7.30;;
74401;SDS011;62837;51.082;13.744;2022-10-16T08:21:27;12.10;;;8.00;;
74401;SDS011;62837;51.082;13.744;2022-10-16T08:23:58;9.30;;;6.90;;
74401;SDS011;62837;51.082;13.744;2022-10-16T08:26:29;9.50;;;8.10;;
74401;SDS011;62837;51.082;13.744;2022-10-16T08:29:00;7.80;;;6.30;;
74401;SDS011;62837;51.082;13.744;2022-10-16T08:31:30;7.00;;;5.40;;
74401;SDS011;62837;51.082;13.744;2022-10-16T08:34:01;6.00;;;5.00;;
74401;SDS011;62837;51.082;13.744;2022-10-16T08:36:32;8.20;;;7.10;;
74401;SDS011;62837;51.082;13.744;2022-10-16T08:39:03;7.60;;;5.10;;
74401;SDS011;62837;51.082;13.744;2022-10-16T08:41:37;7.90;;;4.80;;
74401;SDS011;62837;51.082;13.744;2022-10-16T08:44:32;6.70;;;6.00;;
74401;SDS011;62837;51.082;13.744;2022-10-16T08:47:19;6.10;;;5.40;;
74401;SDS011;62837;51.082;13.744;2022-10-16T08:49:55;5.30;;;4.60;;
74401;SDS011;62837;51.082;13.744;2022-10-16T08:52:29;5.40;;;4.90;;
74401;SDS011;62837;51.082;13.744;2022-10-16T08:55:04;8.90;;;6.00;;
74401;SDS011;62837;51.082;13.744;2022-10-16T08:57:45;7.30;;;4.80;;
74401;SDS011;62837;51.082;13.744;2022-10-16T09:00:16;6.90;;;4.30;;
74401;SDS011;62837;51.082;13.744;2022-10-16T09:02:50;5.10;;;3.50;;
74401;SDS011;62837;51.082;13.744;2022-10-16T09:05:33;5.00;;;4.30;;
74401;SDS011;62837;51.082;13.744;2022-10-16T09:08:24;4.60;;;3.30;;
74401;SDS011;62837;51.082;13.744;2022-10-16T09:11:05;4.90;;;3.40;;
74401;SDS011;62837;51.082;13.744;2022-10-16T09:13:43;4.90;;;2.90;;
74401;SDS011;62837;51.082;13.744;2022-10-16T09:16:21;5.70;;;3.50;;
74401;SDS011;62837;51.082;13.744;2022-10-16T09:18:59;7.10;;;4.20;;
74401;SDS011;62837;51.082;13.744;2022-10-16T09:21:38;5.70;;;3.90;;
74401;SDS011;62837;51.082;13.744;2022-10-16T09:24:13;4.30;;;3.90;;
74401;SDS011;62837;51.082;13.744;2022-10-16T09:26:46;6.50;;;3.30;;
74401;SDS011;62837;51.082;13.744;2022-10-16T09:29:18;5.10;;;3.30;;
74401;SDS011;62837;51.082;13.744;2022-10-16T09:31:52;3.20;;;2.80;;
74401;SDS011;62837;51.082;13.744;2022-10-16T09:34:41;3.80;;;2.90;;
74401;SDS011;62837;51.082;13.744;2022-10-16T09:37:15;2.90;;;2.60;;
74401;SDS011;62837;51.082;13.744;2022-10-16T09:39:51;4.20;;;3.50;;
74401;SDS011;62837;51.082;13.744;2022-10-16T09:42:23;3.50;;;3.20;;
74401;SDS011;62837;51.082;13.744;2022-10-16T09:44:59;5.40;;;3.40;;
74401;SDS011;62837;51.082;13.744;2022-10-16T09:47:30;3.60;;;2.80;;
74401;SDS011;62837;51.082;13.744;2022-10-16T09:50:19;4.30;;;2.90;;
74401;SDS011;62837;51.082;13.744;2022-10-16T09:52:52;3.60;;;3.30;;
74401;SDS011;62837;51.082;13.744;2022-10-16T09:55:33;4.00;;;2.40;;
74401;SDS011;62837;51.082;13.744;2022-10-16T09:58:11;3.30;;;2.90;;
74401;SDS011;62837;51.082;13.744;2022-10-16T10:00:48;3.30;;;3.00;;
74401;SDS011;62837;51.082;13.744;2022-10-16T10:03:26;2.70;;;2.50;;
74401;SDS011;62837;51.082;13.744;2022-10-16T10:06:13;2.80;;;2.50;;
74401;SDS011;62837;51.082;13.744;2022-10-16T10:08:54;3.20;;;2.70;;
74401;SDS011;62837;51.082;13.744;2022-10-16T10:11:40;4.00;;;2.20;;
74401;SDS011;62837;51.082;13.744;2022-10-16T10:14:16;2.90;;;1.60;;
74401;SDS011;62837;51.082;13.744;2022-10-16T10:16:50;2.00;;;1.80;;
74401;SDS011;62837;51.082;13.744;2022-10-16T10:19:36;2.30;;;2.00;;
74401;SDS011;62837;51.082;13.744;2022-10-16T10:22:17;2.30;;;1.80;;
74401;SDS011;62837;51.082;13.744;2022-10-16T10:24:57;3.10;;;2.20;;
74401;SDS011;62837;51.082;13.744;2022-10-16T10:27:42;2.50;;;2.00;;
74401;SDS011;62837;51.082;13.744;2022-10-16T10:30:29;3.30;;;2.50;;
74401;SDS011;62837;51.082;13.744;2022-10-16T10:33:11;3.90;;;2.00;;
74401;SDS011;62837;51.082;13.744;2022-10-16T10:35:52;2.10;;;1.60;;
74401;SDS011;62837;51.082;13.744;2022-10-16T10:38:33;2.20;;;1.40;;
74401;SDS011;62837;51.082;13.744;2022-10-16T10:41:22;2.00;;;1.40;;
74401;SDS011;62837;51.082;13.744;2022-10-16T10:44:11;1.60;;;0.50;;
74401;SDS011;62837;51.082;13.744;2022-10-16T10:46:50;0.50;;;0.30;;
74401;SDS011;62837;51.082;13.744;2022-10-16T10:49:34;1.00;;;0.40;;
74401;SDS011;62837;51.082;13.744;2022-10-16T10:52:28;0.70;;;0.20;;
74401;SDS011;62837;51.082;13.744;2022-10-16T10:55:13;0.60;;;0.20;;
74401;SDS011;62837;51.082;13.744;2022-10-16T10:57:57;2.10;;;0.20;;
74401;SDS011;62837;51.082;13.744;2022-10-16T11:00:42;1.80;;;0.30;;
74401;SDS011;62837;51.082;13.744;2022-10-16T11:03:25;0.40;;;0.10;;
74401;SDS011;62837;51.082;13.744;2022-10-16T11:06:11;1.40;;;0.20;;
74401;SDS011;62837;51.082;13.744;2022-10-16T11:08:47;0.60;;;0.20;;
74401;SDS011;62837;51.082;13.744;2022-10-16T11:11:29;0.80;;;0.20;;
74401;SDS011;62837;51.082;13.744;2022-10-16T11:14:04;0.40;;;0.10;;
74401;SDS011;62837;51.082;13.744;2022-10-16T11:16:44;1.20;;;0.20;;
74401;SDS011;62837;51.082;13.744;2022-10-16T11:19:21;4.30;;;0.30;;
74401;SDS011;62837;51.082;13.744;2022-10-16T11:22:03;0.60;;;0.10;;
74401;SDS011;62837;51.082;13.744;2022-10-16T11:24:41;0.30;;;0.10;;
74401;SDS011;62837;51.082;13.744;2022-10-16T11:27:17;0.60;;;0.40;;
74401;SDS011;62837;51.082;13.744;2022-10-16T11:29:57;0.30;;;0.20;;
74401;SDS011;62837;51.082;13.744;2022-10-16T11:32:31;0.60;;;0.50;;
74401;SDS011;62837;51.082;13.744;2022-10-16T11:35:10;1.00;;;0.20;;
74401;SDS011;62837;51.082;13.744;2022-10-16T11:37:46;2.70;;;0.30;;
74401;SDS011;62837;51.082;13.744;2022-10-16T11:40:23;0.70;;;0.30;;
74401;SDS011;62837;51.082;13.744;2022-10-16T11:43:00;0.70;;;0.40;;
74401;SDS011;62837;51.082;13.744;2022-10-16T11:45:40;0.60;;;0.30;;
74401;SDS011;62837;51.082;13.744;2022-10-16T11:48:17;1.10;;;0.30;;
74401;SDS011;62837;51.082;13.744;2022-10-16T11:50:56;0.40;;;0.20;;
74401;SDS011;62837;51.082;13.744;2022-10-16T11:53:35;0.40;;;0.30;;
74401;SDS011;62837;51.082;13.744;2022-10-16T11:56:14;0.90;;;0.20;;
74401;SDS011;62837;51.082;13.744;2022-10-16T11:58:51;0.90;;;0.30;;
74401;SDS011;62837;51.082;13.744;2022-10-16T12:01:27;2.70;;;1.00;;
74401;SDS011;62837;51.082;13.744;2022-10-16T12:04:05;1.30;;;0.40;;
74401;SDS011;62837;51.082;13.744;2022-10-16T12:06:46;0.80;;;0.20;;
74401;SDS011;62837;51.082;13.744;2022-10-16T12:09:23;0.80;;;0.30;;
74401;SDS011;62837;51.082;13.744;2022-10-16T12:11:56;0.90;;;0.30;;
74401;SDS011;62837;51.082;13.744;2022-10-16T12:14:37;0.40;;;0.10;;
74401;SDS011;62837;51.082;13.744;2022-10-16T12:17:34;0.40;;;0.10;;
74401;SDS011;62837;51.082;13.744;2022-10-16T12:23:06;1.00;;;0.20;;
74401;SDS011;62837;51.082;13.744;2022-10-16T12:25:54;1.50;;;0.30;;
74401;SDS011;62837;51.082;13.744;2022-10-16T12:28:27;2.10;;;0.30;;
74401;SDS011;62837;51.082;13.744;2022-10-16T12:31:00;0.60;;;0.30;;
74401;SDS011;62837;51.082;13.744;2022-10-16T12:33:33;0.50;;;0.20;;
74401;SDS011;62837;51.082;13.744;2022-10-16T12:36:08;0.70;;;0.10;;
74401;SDS011;62837;51.082;13.744;2022-10-16T12:38:48;0.50;;;0.20;;
74401;SDS011;62837;51.082;13.744;2022-10-16T12:41:25;0.50;;;0.20;;
74401;SDS011;62837;51.082;13.744;2022-10-16T12:43:57;1.10;;;0.20;;
74401;SDS011;62837;51.082;13.744;2022-10-16T12:46:39;0.30;;;0.10;;
74401;SDS011;62837;51.082;13.744;2022-10-16T12:49:21;0.40;;;0.10;;
74401;SDS011;62837;51.082;13.744;2022-10-16T12:54:29;0.70;;;0.30;;
74401;SDS011;62837;51.082;13.744;2022-10-16T12:57:12;0.70;;;0.20;;
74401;SDS011;62837;51.082;13.744;2022-10-16T13:00:07;0.40;;;0.10;;
74401;SDS011;62837;51.082;13.744;2022-10-16T13:02:58;0.60;;;0.20;;
74401;SDS011;62837;51.082;13.744;2022-10-16T13:05:47;1.80;;;0.40;;
74401;SDS011;62837;51.082;13.744;2022-10-16T13:08:38;0.60;;;0.30;;
74401;SDS011;62837;51.082;13.744;2022-10-16T13:11:24;0.70;;;0.10;;
74401;SDS011;62837;51.082;13.744;2022-10-16T13:14:13;0.70;;;0.20;;
74401;SDS011;62837;51.082;13.744;2022-10-16T13:16:57;0.80;;;0.40;;
74401;SDS011;62837;51.082;13.744;2022-10-16T13:19:35;3.80;;;0.30;;
74401;SDS011;62837;51.082;13.744;2022-10-16T13:22:16;3.20;;;0.50;;
74401;SDS011;62837;51.082;13.744;2022-10-16T13:24:55;1.00;;;0.30;;
74401;SDS011;62837;51.082;13.744;2022-10-16T13:27:43;1.50;;;0.10;;
74401;SDS011;62837;51.082;13.744;2022-10-16T13:30:21;1.00;;;0.40;;
74401;SDS011;62837;51.082;13.744;2022-10-16T13:33:00;0.60;;;0.10;;
74401;SDS011;62837;51.082;13.744;2022-10-16T13:35:34;0.90;;;0.30;;
74401;SDS011;62837;51.082;13.744;2022-10-16T13:38:13;0.90;;;0.20;;
74401;SDS011;62837;51.082;13.744;2022-10-16T13:40:52;0.60;;;0.20;;
74401;SDS011;62837;51.082;13.744;2022-10-16T13:43:25;1.00;;;0.50;;
74401;SDS011;62837;51.082;13.744;2022-10-16T13:46:02;0.80;;;0.30;;
74401;SDS011;62837;51.082;13.744;2022-10-16T13:48:34;1.00;;;0.30;;
74401;SDS011;62837;51.082;13.744;2022-10-16T13:51:06;3.00;;;0.60;;
74401;SDS011;62837;51.082;13.744;2022-10-16T13:53:43;2.20;;;0.80;;
74401;SDS011;62837;51.082;13.744;2022-10-16T13:56:15;1.50;;;0.30;;
74401;SDS011;62837;51.082;13.744;2022-10-16T13:58:58;1.90;;;0.70;;
74401;SDS011;62837;51.082;13.744;2022-10-16T14:01:30;2.00;;;1.00;;
74401;SDS011;62837;51.082;13.744;2022-10-16T14:04:04;2.30;;;0.70;;
74401;SDS011;62837;51.082;13.744;2022-10-16T14:06:36;2.80;;;1.10;;
74401;SDS011;62837;51.082;13.744;2022-10-16T14:09:14;2.70;;;0.80;;
74401;SDS011;62837;51.082;13.744;2022-10-16T14:11:51;1.90;;;0.70;;
74401;SDS011;62837;51.082;13.744;2022-10-16T14:14:24;2.70;;;1.10;;
74401;SDS011;62837;51.082;13.744;2022-10-16T14:17:01;2.70;;;1.00;;
74401;SDS011;62837;51.082;13.744;2022-10-16T14:19:33;3.40;;;0.70;;
74401;SDS011;62837;51.082;13.744;2022-10-16T14:22:03;3.00;;;1.40;;
74401;SDS011;62837;51.082;13.744;2022-10-16T14:24:58;2.90;;;1.40;;
74401;SDS011;62837;51.082;13.744;2022-10-16T14:27:31;2.40;;;0.90;;
74401;SDS011;62837;51.082;13.744;2022-10-16T14:30:14;3.50;;;1.30;;
74401;SDS011;62837;51.082;13.744;2022-10-16T14:32:57;2.30;;;1.40;;
74401;SDS011;62837;51.082;13.744;2022-10-16T14:35:29;2.00;;;1.10;;
74401;SDS011;62837;51.082;13.744;2022-10-16T14:38:02;6.50;;;1.10;;
74401;SDS011;62837;51.082;13.744;2022-10-16T14:40:35;2.50;;;1.10;;
74401;SDS011;62837;51.082;13.744;2022-10-16T14:45:35;2.50;;;0.90;;
74401;SDS011;62837;51.082;13.744;2022-10-16T14:48:14;3.40;;;1.10;;
74401;SDS011;62837;51.082;13.744;2022-10-16T14:50:48;4.50;;;1.50;;
74401;SDS011;62837;51.082;13.744;2022-10-16T14:53:19;5.30;;;2.20;;
74401;SDS011;62837;51.082;13.744;2022-10-16T14:55:49;5.30;;;1.90;;
74401;SDS011;62837;51.082;13.744;2022-10-16T14:58:21;5.50;;;3.50;;
74401;SDS011;62837;51.082;13.744;2022-10-16T15:00:55;6.20;;;2.80;;
74401;SDS011;62837;51.082;13.744;2022-10-16T15:03:26;5.10;;;2.90;;
74401;SDS011;62837;51.082;13.744;2022-10-16T15:05:57;5.80;;;3.40;;
74401;SDS011;62837;51.082;13.744;2022-10-16T15:08:27;7.90;;;4.10;;
74401;SDS011;62837;51.082;13.744;2022-10-16T15:10:58;7.50;;;4.30;;
74401;SDS011;62837;51.082;13.744;2022-10-16T15:13:29;6.40;;;4.10;;
74401;SDS011;62837;51.082;13.744;2022-10-16T15:16:00;4.30;;;2.30;;
74401;SDS011;62837;51.082;13.744;2022-10-16T15:18:31;3.30;;;1.50;;
74401;SDS011;62837;51.082;13.744;2022-10-16T15:21:01;3.50;;;1.50;;
74401;SDS011;62837;51.082;13.744;2022-10-16T15:23:32;4.70;;;1.70;;
74401;SDS011;62837;51.082;13.744;2022-10-16T15:26:03;4.80;;;2.80;;
74401;SDS011;62837;51.082;13.744;2022-10-16T15:28:34;3.40;;;2.00;;
74401;SDS011;62837;51.082;13.744;2022-10-16T15:31:05;5.00;;;2.50;;
74401;SDS011;62837;51.082;13.744;2022-10-16T15:33:36;4.10;;;2.50;;